createdAt,value
2022-10-31T00:00:53.575Z,7.30
2022-10-31T00:03:27.218Z,8.50
2022-10-31T00:05:59.377Z,6.45
2022-10-31T00:08:33.486Z,7.68
2022-10-31T00:11:10.071Z,8.90
2022-10-31T00:13:42.327Z,10.63
2022-10-31T00:16:19.404Z,11.85
2022-10-31T00:18:56.252Z,14.73
2022-10-31T00:21:32.025Z,8.90
2022-10-31T00:24:05.228Z,10.57
2022-10-31T00:26:37.778Z,9.38
2022-10-31T00:29:09.894Z,9.50
2022-10-31T00:31:41.789Z,7.63
2022-10-31T00:34:13.781Z,6.30
2022-10-31T00:40:32.743Z,7.60
2022-10-31T00:43:04.959Z,9.30
2022-10-31T00:45:37.047Z,9.70
2022-10-31T00:48:09.510Z,7.50
2022-10-31T00:50:43.441Z,7.35
2022-10-31T00:53:15.417Z,6.93
2022-10-31T00:55:47.553Z,7.95
2022-10-31T00:58:41.507Z,5.28
2022-10-31T01:01:13.561Z,8.27
2022-10-31T01:03:45.556Z,6.03
2022-10-31T01:06:17.539Z,8.32
2022-10-31T01:08:49.789Z,9.00
2022-10-31T01:11:24.157Z,6.72
2022-10-31T01:13:56.210Z,7.78
2022-10-31T01:16:30.551Z,7.72
2022-10-31T01:19:03.046Z,8.95
2022-10-31T01:21:35.228Z,7.25
2022-10-31T01:24:07.562Z,6.57
2022-10-31T01:26:39.837Z,6.22
2022-10-31T01:29:12.058Z,5.93
2022-10-31T01:31:44.026Z,6.28
2022-10-31T01:34:17.691Z,11.20
2022-10-31T01:36:52.156Z,11.50
2022-10-31T01:39:24.320Z,9.48
2022-10-31T01:41:56.340Z,7.80
2022-10-31T01:44:28.225Z,7.85
2022-10-31T01:47:28.633Z,7.30
2022-10-31T01:50:13.446Z,7.93
2022-10-31T01:53:02.231Z,7.50
2022-10-31T01:55:42.132Z,7.72
2022-10-31T01:58:21.335Z,9.85
2022-10-31T02:01:03.461Z,8.00
2022-10-31T02:03:38.834Z,8.40
2022-10-31T02:06:22.328Z,9.15
2022-10-31T02:09:08.951Z,8.15
2022-10-31T02:11:45.029Z,12.45
2022-10-31T02:14:17.081Z,8.77
2022-10-31T02:16:49.404Z,7.03
2022-10-31T02:19:27.583Z,8.40
2022-10-31T02:22:28.935Z,6.90
2022-10-31T02:25:42.175Z,8.57
2022-10-31T02:29:13.090Z,10.35
2022-10-31T02:32:13.902Z,7.97
2022-10-31T02:35:28.397Z,9.70
2022-10-31T02:38:36.129Z,7.93
2022-10-31T02:41:45.983Z,8.25
2022-10-31T02:44:24.219Z,7.63
2022-10-31T02:47:20.650Z,8.40
2022-10-31T02:50:15.074Z,8.52
2022-10-31T02:52:54.525Z,7.63
2022-10-31T02:55:26.454Z,7.57
2022-10-31T02:58:22.731Z,9.05
2022-10-31T03:01:35.291Z,8.23
2022-10-31T03:04:33.629Z,7.43
2022-10-31T03:07:57.977Z,7.43
2022-10-31T03:10:57.786Z,7.53
2022-10-31T03:13:44.684Z,8.15
2022-10-31T03:16:38.919Z,7.88
2022-10-31T03:19:30.242Z,7.85
2022-10-31T03:22:11.850Z,7.50
2022-10-31T03:24:52.490Z,11.50
2022-10-31T03:27:28.506Z,7.22
2022-10-31T03:30:08.646Z,9.30
2022-10-31T03:32:54.426Z,6.82
2022-10-31T03:35:30.011Z,7.85
2022-10-31T03:38:06.920Z,9.88
2022-10-31T03:40:44.157Z,10.10
2022-10-31T03:43:27.764Z,7.43
2022-10-31T03:46:02.165Z,7.38
2022-10-31T03:48:34.892Z,8.32
2022-10-31T03:51:16.441Z,7.47
2022-10-31T03:54:04.565Z,10.10
2022-10-31T03:57:13.187Z,8.80
2022-10-31T04:00:09.453Z,8.00
2022-10-31T04:02:50.375Z,7.88
2022-10-31T04:05:32.062Z,6.90
2022-10-31T04:08:11.757Z,6.93
2022-10-31T04:10:50.040Z,8.77
2022-10-31T04:13:30.896Z,6.40
2022-10-31T04:16:05.821Z,10.10
2022-10-31T04:18:38.765Z,7.82
2022-10-31T04:21:10.813Z,6.88
2022-10-31T04:23:42.894Z,7.00
2022-10-31T04:26:15.027Z,12.80
2022-10-31T04:28:47.019Z,8.00
2022-10-31T04:31:19.873Z,7.30
2022-10-31T04:33:51.742Z,7.47
2022-10-31T04:36:23.834Z,7.40
2022-10-31T04:38:55.949Z,7.07
2022-10-31T04:41:27.870Z,8.73
2022-10-31T04:43:59.746Z,7.63
2022-10-31T04:46:31.776Z,9.07
2022-10-31T04:49:03.746Z,9.27
2022-10-31T04:51:35.839Z,8.77
2022-10-31T04:54:07.909Z,7.70
2022-10-31T04:56:39.760Z,7.05
2022-10-31T04:59:11.741Z,9.52
2022-10-31T05:01:43.683Z,8.68
2022-10-31T05:04:15.929Z,7.65
2022-10-31T05:06:47.849Z,7.55
2022-10-31T05:09:19.793Z,8.50
2022-10-31T05:11:51.662Z,10.35
2022-10-31T05:14:23.715Z,8.02
2022-10-31T05:16:55.688Z,7.68
2022-10-31T05:19:27.665Z,7.80
2022-10-31T05:21:59.622Z,6.90
2022-10-31T05:24:31.520Z,8.30
2022-10-31T05:27:03.557Z,8.13
2022-10-31T05:29:35.567Z,7.90
2022-10-31T05:32:07.431Z,8.70
2022-10-31T05:34:39.339Z,8.00
2022-10-31T05:37:11.310Z,7.85
2022-10-31T05:39:43.206Z,8.18
2022-10-31T05:42:15.117Z,11.20
2022-10-31T05:44:47.000Z,9.40
2022-10-31T05:47:19.117Z,9.55
2022-10-31T05:49:51.258Z,8.68
2022-10-31T05:52:23.296Z,9.15
2022-10-31T05:54:55.326Z,8.05
2022-10-31T05:57:27.464Z,8.70
2022-10-31T06:00:00.481Z,10.27
2022-10-31T06:02:35.356Z,7.40
2022-10-31T06:05:07.763Z,8.32
2022-10-31T06:07:40.049Z,8.18
2022-10-31T06:10:12.213Z,7.95
2022-10-31T06:12:44.229Z,7.90
2022-10-31T06:15:21.064Z,8.95
2022-10-31T06:18:01.074Z,8.05
2022-10-31T06:20:35.562Z,11.55
2022-10-31T06:23:07.773Z,9.20
2022-10-31T06:25:39.856Z,7.50
2022-10-31T06:28:11.863Z,13.27
2022-10-31T06:30:43.849Z,7.75
2022-10-31T06:33:15.905Z,8.70
2022-10-31T06:35:48.545Z,8.68
2022-10-31T06:38:20.587Z,7.95
2022-10-31T06:40:52.768Z,7.80
2022-10-31T06:43:25.787Z,8.15
2022-10-31T06:45:58.127Z,12.02
2022-10-31T06:48:34.019Z,8.05
2022-10-31T06:51:07.335Z,7.97
2022-10-31T06:53:39.479Z,7.35
2022-10-31T06:56:11.527Z,12.15
2022-10-31T06:58:43.524Z,7.47
2022-10-31T07:01:15.620Z,7.95
2022-10-31T07:03:47.844Z,11.13
2022-10-31T07:06:19.829Z,11.07
2022-10-31T07:08:51.871Z,8.43
2022-10-31T07:11:23.911Z,10.13
2022-10-31T07:13:56.114Z,11.98
2022-10-31T07:16:28.343Z,14.70
2022-10-31T07:19:00.389Z,11.65
2022-10-31T07:21:32.437Z,8.88
2022-10-31T07:24:04.848Z,9.30
2022-10-31T07:26:36.983Z,9.15
2022-10-31T07:29:09.142Z,9.75
2022-10-31T07:31:41.492Z,8.63
2022-10-31T07:34:13.715Z,8.30
2022-10-31T07:36:51.774Z,9.35
2022-10-31T07:39:24.196Z,9.38
2022-10-31T07:41:59.747Z,8.95
2022-10-31T07:44:31.762Z,9.45
2022-10-31T07:47:32.945Z,8.23
2022-10-31T07:50:14.393Z,9.70
2022-10-31T07:53:04.265Z,10.82
2022-10-31T07:55:38.902Z,9.13
2022-10-31T07:58:16.421Z,9.75
2022-10-31T08:00:49.485Z,10.45
2022-10-31T08:03:21.587Z,13.75
2022-10-31T08:05:53.545Z,8.98
2022-10-31T08:08:25.725Z,10.90
2022-10-31T08:11:00.079Z,8.80
2022-10-31T08:13:32.518Z,10.02
2022-10-31T08:16:05.459Z,10.20
2022-10-31T08:18:39.195Z,12.45
2022-10-31T08:21:11.527Z,12.18
2022-10-31T08:23:43.504Z,14.05
2022-10-31T08:26:18.850Z,18.00
2022-10-31T08:28:51.447Z,20.63
2022-10-31T08:31:32.049Z,11.70
2022-10-31T08:34:05.413Z,11.38
2022-10-31T08:36:37.598Z,10.45
2022-10-31T08:39:09.781Z,14.30
2022-10-31T08:41:42.113Z,9.93
2022-10-31T08:44:14.534Z,9.85
2022-10-31T08:46:50.849Z,11.55
2022-10-31T08:49:22.935Z,9.60
2022-10-31T08:51:55.078Z,11.20
2022-10-31T08:54:27.205Z,9.73
2022-10-31T08:56:59.215Z,11.18
2022-10-31T08:59:31.199Z,10.05
2022-10-31T09:02:03.789Z,10.57
2022-10-31T09:04:37.199Z,8.25
2022-10-31T09:07:24.547Z,9.70
2022-10-31T09:09:57.389Z,10.40
2022-10-31T09:12:29.430Z,9.52
2022-10-31T09:15:02.905Z,9.38
2022-10-31T09:17:35.141Z,9.27
2022-10-31T09:20:07.368Z,8.88
2022-10-31T09:22:39.909Z,12.18
2022-10-31T09:25:12.932Z,9.95
2022-10-31T09:28:24.142Z,9.80
2022-10-31T09:30:56.312Z,11.45
2022-10-31T09:33:28.470Z,8.45
2022-10-31T09:36:00.654Z,9.15
2022-10-31T09:38:32.816Z,11.70
2022-10-31T09:41:26.496Z,10.27
2022-10-31T09:44:39.777Z,11.50
2022-10-31T09:47:47.226Z,9.02
2022-10-31T09:51:09.899Z,9.38
2022-10-31T09:54:26.625Z,9.00
2022-10-31T09:57:26.251Z,7.90
2022-10-31T10:00:06.020Z,16.23
2022-10-31T10:02:47.763Z,8.65
2022-10-31T10:05:53.029Z,10.98
2022-10-31T10:08:34.414Z,8.18
2022-10-31T10:11:19.013Z,8.63
2022-10-31T10:14:23.052Z,8.55
2022-10-31T10:17:43.162Z,14.10
2022-10-31T10:21:05.304Z,12.90
2022-10-31T10:24:29.085Z,12.00
2022-10-31T10:27:29.496Z,8.13
2022-10-31T10:30:40.291Z,11.00
2022-10-31T10:33:37.746Z,9.20
2022-10-31T10:36:30.992Z,9.20
2022-10-31T10:39:42.176Z,11.70
2022-10-31T10:42:37.763Z,9.98
2022-10-31T10:45:48.016Z,8.70
2022-10-31T10:48:44.558Z,9.00
2022-10-31T10:51:58.243Z,10.95
2022-10-31T10:55:05.907Z,8.65
2022-10-31T10:58:04.517Z,9.10
2022-10-31T11:00:43.245Z,8.40
2022-10-31T11:03:19.822Z,9.00
2022-10-31T11:05:54.478Z,8.88
2022-10-31T11:08:29.648Z,9.15
2022-10-31T11:11:28.911Z,11.00
2022-10-31T11:14:14.593Z,9.60
2022-10-31T11:16:51.592Z,8.50
2022-10-31T11:19:38.747Z,10.00
2022-10-31T11:22:17.600Z,11.00
2022-10-31T11:24:49.712Z,9.40
2022-10-31T11:27:24.990Z,9.18
2022-10-31T11:30:06.614Z,10.02
2022-10-31T11:32:53.866Z,9.35
2022-10-31T11:35:26.885Z,9.98
2022-10-31T11:38:05.093Z,9.17
2022-10-31T11:40:37.448Z,8.93
2022-10-31T11:43:18.640Z,11.27
2022-10-31T11:45:51.373Z,8.73
2022-10-31T11:48:26.186Z,10.30
2022-10-31T11:51:30.459Z,11.60
2022-10-31T11:54:06.235Z,12.93
2022-10-31T11:56:51.883Z,10.30
2022-10-31T11:59:28.515Z,9.40
2022-10-31T12:02:03.373Z,8.90
2022-10-31T12:04:58.574Z,7.57
2022-10-31T12:07:38.745Z,7.77
2022-10-31T12:10:15.158Z,6.97
2022-10-31T12:13:31.504Z,8.47
2022-10-31T12:16:38.037Z,8.40
2022-10-31T12:19:20.849Z,10.00
2022-10-31T12:22:28.688Z,7.40
2022-10-31T12:25:30.794Z,6.77
2022-10-31T12:28:47.170Z,10.97
2022-10-31T12:31:38.226Z,8.47
2022-10-31T12:34:22.014Z,6.47
2022-10-31T12:37:16.620Z,8.00
2022-10-31T12:40:49.842Z,9.80
2022-10-31T12:43:50.547Z,8.60
2022-10-31T12:47:19.612Z,8.13
2022-10-31T12:50:32.583Z,9.37
2022-10-31T12:54:02.938Z,8.13
2022-10-31T12:57:20.527Z,7.70
2022-10-31T13:00:16.357Z,7.73
2022-10-31T13:03:10.478Z,9.67
2022-10-31T13:06:14.209Z,8.30
2022-10-31T13:08:58.967Z,7.83
2022-10-31T13:11:43.643Z,7.97
2022-10-31T13:14:22.478Z,6.93
2022-10-31T13:17:01.963Z,9.60
2022-10-31T13:19:44.130Z,10.30
2022-10-31T13:22:29.131Z,11.70
2022-10-31T13:25:14.975Z,12.00
2022-10-31T13:28:26.083Z,13.60
2022-10-31T13:31:18.127Z,10.53
2022-10-31T13:34:05.918Z,15.27
2022-10-31T13:36:55.444Z,11.37
2022-10-31T13:40:08.551Z,20.07
2022-10-31T13:43:01.321Z,11.07
2022-10-31T13:45:57.467Z,9.37
2022-10-31T13:48:30.149Z,9.07
2022-10-31T13:51:29.312Z,11.80
2022-10-31T13:54:21.014Z,10.60
2022-10-31T13:57:07.668Z,9.70
2022-10-31T14:00:21.587Z,10.93
2022-10-31T14:02:58.561Z,9.93
2022-10-31T14:05:35.045Z,9.53
2022-10-31T14:08:19.986Z,10.47
2022-10-31T14:10:56.923Z,8.77
2022-10-31T14:13:44.410Z,7.67
2022-10-31T14:16:33.357Z,7.73
2022-10-31T14:19:22.955Z,11.53
2022-10-31T14:21:55.315Z,7.07
2022-10-31T14:24:27.233Z,7.33
2022-10-31T14:27:28.063Z,7.60
2022-10-31T14:30:26.224Z,7.90
2022-10-31T14:33:04.011Z,8.27
2022-10-31T14:35:59.177Z,15.47
2022-10-31T14:38:50.989Z,8.27
2022-10-31T14:42:00.840Z,7.70
2022-10-31T14:45:34.884Z,7.80
2022-10-31T14:48:54.235Z,10.80
2022-10-31T14:51:48.632Z,10.40
2022-10-31T14:54:41.736Z,11.30
2022-10-31T14:57:26.832Z,11.43
2022-10-31T15:00:07.598Z,9.00
2022-10-31T15:03:13.352Z,7.23
2022-10-31T15:06:12.254Z,8.73
2022-10-31T15:08:52.191Z,7.43
2022-10-31T15:11:27.615Z,14.57
2022-10-31T15:14:03.098Z,11.57
2022-10-31T15:16:53.781Z,9.80
2022-10-31T15:19:31.105Z,10.17
2022-10-31T15:22:05.600Z,13.67
2022-10-31T15:24:43.385Z,8.50
2022-10-31T15:27:17.987Z,7.40
2022-10-31T15:29:55.341Z,8.77
2022-10-31T15:32:29.816Z,8.73
2022-10-31T15:35:01.912Z,7.03
2022-10-31T15:37:40.822Z,8.00
2022-10-31T15:40:19.791Z,10.80
2022-10-31T15:43:00.844Z,7.10
2022-10-31T15:45:36.506Z,10.82
2022-10-31T15:48:27.206Z,8.23
2022-10-31T15:51:00.236Z,8.52
2022-10-31T15:53:36.923Z,7.50
2022-10-31T15:56:31.945Z,6.78
2022-10-31T15:59:04.257Z,9.02
2022-10-31T16:01:36.574Z,11.90
2022-10-31T16:04:11.877Z,8.65
2022-10-31T16:07:03.949Z,10.52
2022-10-31T16:09:53.675Z,8.15
2022-10-31T16:12:46.992Z,9.57
2022-10-31T16:15:21.903Z,9.18
2022-10-31T16:17:57.924Z,10.48
2022-10-31T16:20:38.780Z,11.02
2022-10-31T16:23:17.500Z,9.90
2022-10-31T16:25:52.485Z,10.93
2022-10-31T16:28:30.259Z,8.10
2022-10-31T16:31:14.963Z,11.18
2022-10-31T16:33:47.340Z,9.93
2022-10-31T16:36:35.352Z,11.90
2022-10-31T16:39:10.401Z,14.30
2022-10-31T16:41:51.818Z,13.95
2022-10-31T16:44:27.915Z,11.80
2022-10-31T16:47:16.004Z,13.05
2022-10-31T16:49:50.711Z,12.15
2022-10-31T16:52:22.883Z,19.08
2022-10-31T16:54:55.613Z,12.55
2022-10-31T16:57:31.962Z,18.52
2022-10-31T17:00:04.813Z,14.10
2022-10-31T17:02:38.599Z,13.43
2022-10-31T17:05:14.340Z,14.43
2022-10-31T17:07:48.754Z,13.32
2022-10-31T17:10:22.816Z,13.18
2022-10-31T17:12:57.956Z,17.65
2022-10-31T17:15:40.195Z,13.13
2022-10-31T17:18:16.799Z,17.40
2022-10-31T17:20:49.279Z,15.07
2022-10-31T17:23:22.340Z,13.95
2022-10-31T17:25:54.721Z,18.33
2022-10-31T17:28:27.432Z,14.05
2022-10-31T17:30:59.617Z,14.35
2022-10-31T17:33:32.819Z,15.50
2022-10-31T17:36:05.577Z,19.30
2022-10-31T17:38:39.166Z,25.95
2022-10-31T17:41:11.758Z,14.13
2022-10-31T17:43:44.055Z,13.40
2022-10-31T17:46:17.128Z,14.55
2022-10-31T17:48:49.511Z,13.68
2022-10-31T17:51:22.077Z,12.07
2022-10-31T17:53:54.227Z,13.95
2022-10-31T17:56:26.613Z,17.77
2022-10-31T17:58:58.855Z,22.42
2022-10-31T18:01:31.368Z,14.43
2022-10-31T18:04:03.778Z,15.88
2022-10-31T18:06:35.952Z,19.58
2022-10-31T18:09:08.229Z,15.18
2022-10-31T18:11:40.499Z,16.30
2022-10-31T18:14:12.902Z,17.08
2022-10-31T18:16:45.340Z,24.88
2022-10-31T18:19:17.557Z,28.35
2022-10-31T18:21:49.764Z,25.25
2022-10-31T18:24:22.101Z,21.48
2022-10-31T18:26:54.734Z,20.17
2022-10-31T18:29:26.906Z,20.02
2022-10-31T18:31:59.347Z,18.90
2022-10-31T18:34:32.147Z,22.13
2022-10-31T18:37:04.609Z,20.88
2022-10-31T18:39:36.866Z,20.05
2022-10-31T18:42:09.120Z,17.63
2022-10-31T18:44:41.241Z,18.30
2022-10-31T18:47:13.602Z,17.90
2022-10-31T18:49:45.770Z,19.10
2022-10-31T18:52:18.291Z,21.05
2022-10-31T18:54:50.417Z,22.75
2022-10-31T18:57:25.296Z,24.50
2022-10-31T18:59:59.341Z,18.95
2022-10-31T19:02:33.908Z,16.80
2022-10-31T19:05:06.855Z,20.17
2022-10-31T19:07:39.086Z,19.77
2022-10-31T19:10:11.433Z,22.83
2022-10-31T19:12:46.141Z,23.48
2022-10-31T19:15:18.583Z,20.63
2022-10-31T19:17:50.716Z,20.23
2022-10-31T19:20:25.670Z,21.75
2022-10-31T19:22:58.988Z,16.13
2022-10-31T19:25:31.577Z,19.30
2022-10-31T19:28:04.604Z,17.45
2022-10-31T19:30:39.771Z,14.32
2022-10-31T19:33:12.025Z,13.68
2022-10-31T19:35:44.240Z,15.60
2022-10-31T19:38:16.338Z,15.35
2022-10-31T19:40:48.624Z,19.08
2022-10-31T19:43:28.083Z,14.98
2022-10-31T19:46:04.766Z,13.50
2022-10-31T19:48:43.157Z,13.32
2022-10-31T19:51:18.127Z,11.45
2022-10-31T19:54:33.887Z,11.15
2022-10-31T19:57:06.148Z,12.50
2022-10-31T19:59:39.646Z,14.80
2022-10-31T20:02:19.744Z,15.60
2022-10-31T20:04:52.219Z,14.35
2022-10-31T20:07:24.455Z,16.92
2022-10-31T20:09:56.947Z,21.95
2022-10-31T20:12:36.286Z,19.30
2022-10-31T20:15:11.846Z,16.83
2022-10-31T20:17:51.700Z,20.63
2022-10-31T20:20:24.037Z,19.80
2022-10-31T20:22:56.164Z,15.40
2022-10-31T20:25:28.285Z,14.85
2022-10-31T20:28:03.219Z,13.45
2022-10-31T20:30:41.305Z,15.05
2022-10-31T20:33:20.026Z,15.32
2022-10-31T20:35:52.354Z,12.40
2022-10-31T20:38:28.938Z,13.82
2022-10-31T20:41:06.714Z,12.85
2022-10-31T20:43:41.372Z,12.60
2022-10-31T20:46:23.522Z,12.82
2022-10-31T20:48:57.249Z,12.02
2022-10-31T20:51:31.792Z,14.10
2022-10-31T20:54:08.160Z,11.25
2022-10-31T20:56:42.990Z,10.77
2022-10-31T20:59:15.444Z,11.00
2022-10-31T21:01:50.400Z,9.80
2022-10-31T21:04:22.650Z,11.45
2022-10-31T21:06:54.827Z,11.38
2022-10-31T21:09:27.187Z,11.50
2022-10-31T21:11:59.554Z,13.15
2022-10-31T21:14:31.754Z,10.82
2022-10-31T21:17:05.455Z,10.80
2022-10-31T21:19:38.200Z,10.98
2022-10-31T21:22:10.598Z,11.65
2022-10-31T21:24:42.778Z,10.57
2022-10-31T21:27:14.832Z,11.45
2022-10-31T21:29:46.922Z,10.73
2022-10-31T21:32:19.043Z,23.35
2022-10-31T21:34:51.239Z,9.75
2022-10-31T21:37:23.743Z,10.40
2022-10-31T21:39:55.718Z,11.77
2022-10-31T21:42:27.868Z,13.50
2022-10-31T21:44:59.861Z,12.90
2022-10-31T21:47:31.946Z,13.35
2022-10-31T21:50:04.118Z,13.20
2022-10-31T21:52:36.535Z,12.98
2022-10-31T21:55:09.155Z,11.80
2022-10-31T21:57:41.133Z,10.18
2022-10-31T22:00:13.457Z,10.52
2022-10-31T22:02:45.833Z,11.57
2022-10-31T22:05:17.946Z,11.88
2022-10-31T22:07:49.860Z,14.95
2022-10-31T22:10:21.944Z,9.60
2022-10-31T22:12:53.977Z,10.73
2022-10-31T22:15:45.724Z,13.02
2022-10-31T22:18:17.747Z,12.88
2022-10-31T22:20:49.689Z,10.55
2022-10-31T22:23:21.681Z,11.52
2022-10-31T22:25:55.698Z,10.60
2022-10-31T22:28:33.271Z,11.35
2022-10-31T22:31:06.563Z,51.65
2022-10-31T22:33:40.999Z,47.38
2022-10-31T22:36:19.620Z,26.88
2022-10-31T22:38:54.413Z,18.98
2022-10-31T22:41:29.769Z,18.42
2022-10-31T22:44:04.172Z,23.17
2022-10-31T22:46:38.186Z,23.00
2022-10-31T22:49:14.952Z,20.45
2022-10-31T22:51:50.607Z,16.23
2022-10-31T22:54:23.104Z,16.58
2022-10-31T22:56:55.078Z,15.00
2022-10-31T22:59:27.149Z,14.10
2022-10-31T23:01:59.284Z,15.20
2022-10-31T23:04:31.576Z,14.38
2022-10-31T23:07:03.886Z,18.08
2022-10-31T23:09:35.886Z,12.52
2022-10-31T23:12:26.758Z,15.40
2022-10-31T23:15:18.597Z,12.82
2022-10-31T23:17:50.561Z,12.38
2022-10-31T23:20:22.597Z,14.90
2022-10-31T23:22:55.804Z,17.27
2022-10-31T23:25:46.258Z,12.68
2022-10-31T23:28:37.987Z,13.23
2022-10-31T23:31:11.302Z,16.30
2022-10-31T23:33:43.512Z,12.52
2022-10-31T23:36:15.867Z,12.23
2022-10-31T23:38:50.911Z,15.23
2022-10-31T23:41:23.679Z,12.27
2022-10-31T23:43:55.772Z,12.65
2022-10-31T23:46:27.845Z,13.43
2022-10-31T23:48:59.915Z,14.20
2022-10-31T23:51:32.009Z,13.07
2022-10-31T23:54:04.832Z,13.00
2022-10-31T23:56:37.242Z,14.73
2022-10-31T23:59:09.783Z,14.10
